sensor_id;sensor_type;location;lat;lon;timestamp;pressure;altitude;pressure_sealevel;temperature
63689;BMP280;54895;40.928;14.480;2023-03-12T00:00:19;99988.72;;;15.37
63689;BMP280;54895;40.928;14.480;2023-03-12T00:02:46;99982.09;;;15.38
63689;BMP280;54895;40.928;14.480;2023-03-12T00:05:13;99995.13;;;15.15
63689;BMP280;54895;40.928;14.480;2023-03-12T00:07:40;100017.16;;;15.78
63689;BMP280;54895;40.928;14.480;2023-03-12T00:10:07;100038.78;;;15.90
63689;BMP280;54895;40.928;14.480;2023-03-12T00:12:34;100036.19;;;15.73
63689;BMP280;54895;40.928;14.480;2023-03-12T00:15:01;100036.25;;;15.46
63689;BMP280;54895;40.928;14.480;2023-03-12T00:17:28;100014.25;;;15.38
63689;BMP280;54895;40.928;14.480;2023-03-12T00:19:55;100033.56;;;15.37
63689;BMP280;54895;40.928;14.480;2023-03-12T00:22:22;100021.69;;;15.30
63689;BMP280;54895;40.928;14.480;2023-03-12T00:24:52;100018.84;;;15.28
63689;BMP280;54895;40.928;14.480;2023-03-12T00:27:19;100010.25;;;15.20
63689;BMP280;54895;40.928;14.480;2023-03-12T00:29:45;100017.13;;;14.87
63689;BMP280;54895;40.928;14.480;2023-03-12T00:38:54;100037.34;;;14.71
63689;BMP280;54895;40.928;14.480;2023-03-12T00:41:22;100038.84;;;14.91
63689;BMP280;54895;40.928;14.480;2023-03-12T00:43:50;100060.91;;;15.26
63689;BMP280;54895;40.928;14.480;2023-03-12T00:46:18;100068.88;;;15.43
63689;BMP280;54895;40.928;14.480;2023-03-12T00:48:46;100071.19;;;15.29
63689;BMP280;54895;40.928;14.480;2023-03-12T00:51:17;100075.44;;;15.32
63689;BMP280;54895;40.928;14.480;2023-03-12T00:53:45;100070.81;;;15.33
63689;BMP280;54895;40.928;14.480;2023-03-12T00:56:14;100098.16;;;15.67
63689;BMP280;54895;40.928;14.480;2023-03-12T00:58:42;100081.91;;;15.03
63689;BMP280;54895;40.928;14.480;2023-03-12T01:01:13;100079.38;;;15.31
63689;BMP280;54895;40.928;14.480;2023-03-12T01:03:41;100081.19;;;15.02
63689;BMP280;54895;40.928;14.480;2023-03-12T01:06:09;100066.63;;;14.86
63689;BMP280;54895;40.928;14.480;2023-03-12T01:08:37;100067.38;;;14.96
63689;BMP280;54895;40.928;14.480;2023-03-12T01:11:05;100091.41;;;15.40
63689;BMP280;54895;40.928;14.480;2023-03-12T01:13:34;100071.66;;;14.82
63689;BMP280;54895;40.928;14.480;2023-03-12T01:16:01;100054.28;;;14.40
63689;BMP280;54895;40.928;14.480;2023-03-12T01:18:30;100044.22;;;14.31
63689;BMP280;54895;40.928;14.480;2023-03-12T01:21:01;100037.94;;;14.19
63689;BMP280;54895;40.928;14.480;2023-03-12T01:23:31;100027.53;;;14.23
63689;BMP280;54895;40.928;14.480;2023-03-12T01:25:59;100035.31;;;14.45
63689;BMP280;54895;40.928;14.480;2023-03-12T01:28:26;100024.69;;;14.55
63689;BMP280;54895;40.928;14.480;2023-03-12T01:30:53;100024.44;;;14.60
63689;BMP280;54895;40.928;14.480;2023-03-12T01:36:27;100054.19;;;14.64
63689;BMP280;54895;40.928;14.480;2023-03-12T01:38:57;100052.91;;;14.82
63689;BMP280;54895;40.928;14.480;2023-03-12T01:41:26;100066.97;;;15.26
63689;BMP280;54895;40.928;14.480;2023-03-12T01:43:53;100061.69;;;14.92
63689;BMP280;54895;40.928;14.480;2023-03-12T01:46:34;100045.81;;;14.77
63689;BMP280;54895;40.928;14.480;2023-03-12T01:49:32;100035.75;;;14.68
63689;BMP280;54895;40.928;14.480;2023-03-12T01:57:02;100034.00;;;14.80
63689;BMP280;54895;40.928;14.480;2023-03-12T01:59:32;100034.50;;;14.69
63689;BMP280;54895;40.928;14.480;2023-03-12T02:02:03;100028.84;;;14.65
63689;BMP280;54895;40.928;14.480;2023-03-12T02:04:31;100024.88;;;14.66
63689;BMP280;54895;40.928;14.480;2023-03-12T02:07:03;100033.28;;;14.80
63689;BMP280;54895;40.928;14.480;2023-03-12T02:09:32;100040.47;;;14.77
63689;BMP280;54895;40.928;14.480;2023-03-12T02:11:59;100048.97;;;14.83
63689;BMP280;54895;40.928;14.480;2023-03-12T02:14:26;100056.03;;;14.88
63689;BMP280;54895;40.928;14.480;2023-03-12T02:16:54;100048.22;;;14.56
63689;BMP280;54895;40.928;14.480;2023-03-12T02:19:49;100057.38;;;14.53
63689;BMP280;54895;40.928;14.480;2023-03-12T02:22:17;100061.75;;;14.58
63689;BMP280;54895;40.928;14.480;2023-03-12T02:24:59;100066.28;;;14.82
63689;BMP280;54895;40.928;14.480;2023-03-12T02:27:35;100073.31;;;14.78
63689;BMP280;54895;40.928;14.480;2023-03-12T02:30:03;100078.09;;;14.96
63689;BMP280;54895;40.928;14.480;2023-03-12T02:36:11;100049.47;;;14.21
63689;BMP280;54895;40.928;14.480;2023-03-12T02:38:49;100061.91;;;14.09
63689;BMP280;54895;40.928;14.480;2023-03-12T02:41:26;100063.63;;;14.14
63689;BMP280;54895;40.928;14.480;2023-03-12T02:44:00;100049.47;;;14.04
63689;BMP280;54895;40.928;14.480;2023-03-12T02:46:33;100058.25;;;13.97
63689;BMP280;54895;40.928;14.480;2023-03-12T02:49:00;100053.94;;;14.02
63689;BMP280;54895;40.928;14.480;2023-03-12T02:51:27;100049.78;;;14.08
63689;BMP280;54895;40.928;14.480;2023-03-12T02:53:54;100048.06;;;14.20
63689;BMP280;54895;40.928;14.480;2023-03-12T02:56:24;100046.19;;;14.13
63689;BMP280;54895;40.928;14.480;2023-03-12T02:58:52;100061.75;;;14.07
63689;BMP280;54895;40.928;14.480;2023-03-12T03:01:20;100056.69;;;13.94
63689;BMP280;54895;40.928;14.480;2023-03-12T03:03:47;100051.13;;;13.75
63689;BMP280;54895;40.928;14.480;2023-03-12T03:06:16;100041.28;;;13.61
63689;BMP280;54895;40.928;14.480;2023-03-12T03:08:43;100047.75;;;13.50
63689;BMP280;54895;40.928;14.480;2023-03-12T03:11:10;100044.81;;;13.63
63689;BMP280;54895;40.928;14.480;2023-03-12T03:13:37;100065.50;;;13.87
63689;BMP280;54895;40.928;14.480;2023-03-12T03:16:19;100065.75;;;13.74
63689;BMP280;54895;40.928;14.480;2023-03-12T03:19:07;100062.28;;;13.64
63689;BMP280;54895;40.928;14.480;2023-03-12T03:22:02;100032.94;;;13.32
63689;BMP280;54895;40.928;14.480;2023-03-12T03:25:12;100072.00;;;13.52
63689;BMP280;54895;40.928;14.480;2023-03-12T03:27:45;100082.56;;;13.67
63689;BMP280;54895;40.928;14.480;2023-03-12T03:30:13;100091.03;;;13.81
63689;BMP280;54895;40.928;14.480;2023-03-12T03:32:48;100101.38;;;13.77
63689;BMP280;54895;40.928;14.480;2023-03-12T03:35:19;100094.09;;;13.77
63689;BMP280;54895;40.928;14.480;2023-03-12T03:37:47;100100.09;;;14.02
63689;BMP280;54895;40.928;14.480;2023-03-12T03:40:13;100114.66;;;14.33
63689;BMP280;54895;40.928;14.480;2023-03-12T03:42:40;100122.75;;;14.26
63689;BMP280;54895;40.928;14.480;2023-03-12T03:45:08;100099.78;;;13.98
63689;BMP280;54895;40.928;14.480;2023-03-12T03:47:36;100094.22;;;14.04
63689;BMP280;54895;40.928;14.480;2023-03-12T03:50:04;100102.69;;;14.34
63689;BMP280;54895;40.928;14.480;2023-03-12T03:52:31;100108.22;;;14.36
63689;BMP280;54895;40.928;14.480;2023-03-12T03:54:58;100080.50;;;13.58
63689;BMP280;54895;40.928;14.480;2023-03-12T03:57:25;100069.69;;;13.73
63689;BMP280;54895;40.928;14.480;2023-03-12T03:59:59;100091.63;;;13.96
63689;BMP280;54895;40.928;14.480;2023-03-12T04:02:44;100095.63;;;13.63
63689;BMP280;54895;40.928;14.480;2023-03-12T04:05:24;100090.19;;;13.95
63689;BMP280;54895;40.928;14.480;2023-03-12T04:07:53;100098.25;;;13.71
63689;BMP280;54895;40.928;14.480;2023-03-12T04:10:23;100091.34;;;13.60
63689;BMP280;54895;40.928;14.480;2023-03-12T04:12:50;100087.31;;;13.52
63689;BMP280;54895;40.928;14.480;2023-03-12T04:15:18;100089.69;;;13.40
63689;BMP280;54895;40.928;14.480;2023-03-12T04:17:47;100058.63;;;13.21
63689;BMP280;54895;40.928;14.480;2023-03-12T04:20:14;100091.94;;;13.51
63689;BMP280;54895;40.928;14.480;2023-03-12T04:22:42;100089.09;;;13.49
63689;BMP280;54895;40.928;14.480;2023-03-12T04:25:10;100098.72;;;13.52
63689;BMP280;54895;40.928;14.480;2023-03-12T04:27:37;100118.69;;;13.76
63689;BMP280;54895;40.928;14.480;2023-03-12T04:30:04;100126.97;;;13.87
63689;BMP280;54895;40.928;14.480;2023-03-12T04:36:23;100154.22;;;14.18
63689;BMP280;54895;40.928;14.480;2023-03-12T04:38:52;100148.88;;;13.61
63689;BMP280;54895;40.928;14.480;2023-03-12T04:41:23;100141.81;;;13.56
63689;BMP280;54895;40.928;14.480;2023-03-12T04:43:55;100135.19;;;13.57
63689;BMP280;54895;40.928;14.480;2023-03-12T04:46:22;100144.44;;;13.88
63689;BMP280;54895;40.928;14.480;2023-03-12T04:48:48;100169.91;;;14.14
63689;BMP280;54895;40.928;14.480;2023-03-12T04:51:15;100168.00;;;13.82
63689;BMP280;54895;40.928;14.480;2023-03-12T04:53:41;100155.72;;;13.47
63689;BMP280;54895;40.928;14.480;2023-03-12T04:56:09;100147.00;;;13.08
63689;BMP280;54895;40.928;14.480;2023-03-12T04:58:37;100128.25;;;12.76
63689;BMP280;54895;40.928;14.480;2023-03-12T05:01:04;100129.66;;;12.62
63689;BMP280;54895;40.928;14.480;2023-03-12T05:03:31;100119.19;;;12.56
63689;BMP280;54895;40.928;14.480;2023-03-12T05:05:58;100119.34;;;12.66
63689;BMP280;54895;40.928;14.480;2023-03-12T05:08:25;100119.84;;;12.72
63689;BMP280;54895;40.928;14.480;2023-03-12T05:10:51;100127.72;;;12.70
63689;BMP280;54895;40.928;14.480;2023-03-12T05:13:20;100132.84;;;12.83
63689;BMP280;54895;40.928;14.480;2023-03-12T05:15:48;100157.38;;;12.96
63689;BMP280;54895;40.928;14.480;2023-03-12T05:18:17;100159.19;;;12.64
63689;BMP280;54895;40.928;14.480;2023-03-12T05:20:46;100148.19;;;12.60
63689;BMP280;54895;40.928;14.480;2023-03-12T05:23:12;100169.84;;;12.86
63689;BMP280;54895;40.928;14.480;2023-03-12T05:25:39;100175.38;;;12.81
63689;BMP280;54895;40.928;14.480;2023-03-12T05:28:06;100188.31;;;12.99
63689;BMP280;54895;40.928;14.480;2023-03-12T05:30:34;100190.09;;;13.04
63689;BMP280;54895;40.928;14.480;2023-03-12T05:36:37;100216.88;;;13.43
63689;BMP280;54895;40.928;14.480;2023-03-12T05:39:04;100209.59;;;13.36
63689;BMP280;54895;40.928;14.480;2023-03-12T05:41:33;100209.38;;;13.49
63689;BMP280;54895;40.928;14.480;2023-03-12T05:44:05;100206.22;;;13.28
63689;BMP280;54895;40.928;14.480;2023-03-12T05:46:32;100213.34;;;13.33
63689;BMP280;54895;40.928;14.480;2023-03-12T05:48:59;100205.84;;;13.39
63689;BMP280;54895;40.928;14.480;2023-03-12T05:51:26;100218.81;;;13.50
63689;BMP280;54895;40.928;14.480;2023-03-12T05:53:53;100220.13;;;13.98
63689;BMP280;54895;40.928;14.480;2023-03-12T05:56:20;100231.34;;;14.04
63689;BMP280;54895;40.928;14.480;2023-03-12T05:58:47;100247.97;;;14.27
63689;BMP280;54895;40.928;14.480;2023-03-12T06:01:23;100249.25;;;13.94
63689;BMP280;54895;40.928;14.480;2023-03-12T06:03:52;100244.28;;;13.91
63689;BMP280;54895;40.928;14.480;2023-03-12T06:06:19;100246.22;;;13.90
63689;BMP280;54895;40.928;14.480;2023-03-12T06:08:46;100249.41;;;13.57
63689;BMP280;54895;40.928;14.480;2023-03-12T06:11:13;100254.06;;;13.56
63689;BMP280;54895;40.928;14.480;2023-03-12T06:13:40;100255.34;;;13.87
63689;BMP280;54895;40.928;14.480;2023-03-12T06:16:11;100263.19;;;14.17
63689;BMP280;54895;40.928;14.480;2023-03-12T06:18:42;100278.53;;;14.41
63689;BMP280;54895;40.928;14.480;2023-03-12T06:21:15;100277.13;;;14.40
63689;BMP280;54895;40.928;14.480;2023-03-12T06:23:43;100288.69;;;14.18
63689;BMP280;54895;40.928;14.480;2023-03-12T06:26:14;100278.31;;;14.47
63689;BMP280;54895;40.928;14.480;2023-03-12T06:28:41;100286.63;;;14.83
63689;BMP280;54895;40.928;14.480;2023-03-12T06:31:08;100302.75;;;14.92
63689;BMP280;54895;40.928;14.480;2023-03-12T06:37:00;100314.25;;;14.85
63689;BMP280;54895;40.928;14.480;2023-03-12T06:39:26;100323.28;;;15.14
63689;BMP280;54895;40.928;14.480;2023-03-12T06:41:55;100323.91;;;15.39
63689;BMP280;54895;40.928;14.480;2023-03-12T06:44:21;100330.69;;;15.23
63689;BMP280;54895;40.928;14.480;2023-03-12T06:46:48;100312.88;;;15.35
63689;BMP280;54895;40.928;14.480;2023-03-12T06:49:14;100319.19;;;15.64
63689;BMP280;54895;40.928;14.480;2023-03-12T06:51:40;100309.28;;;16.10
63689;BMP280;54895;40.928;14.480;2023-03-12T06:54:07;100324.81;;;16.48
63689;BMP280;54895;40.928;14.480;2023-03-12T06:56:33;100339.31;;;16.71
63689;BMP280;54895;40.928;14.480;2023-03-12T06:58:59;100354.81;;;17.08
63689;BMP280;54895;40.928;14.480;2023-03-12T07:01:26;100367.94;;;17.23
63689;BMP280;54895;40.928;14.480;2023-03-12T07:03:52;100374.88;;;16.98
63689;BMP280;54895;40.928;14.480;2023-03-12T07:06:21;100370.31;;;16.91
63689;BMP280;54895;40.928;14.480;2023-03-12T07:08:47;100373.91;;;17.22
63689;BMP280;54895;40.928;14.480;2023-03-12T07:11:14;100399.94;;;17.76
63689;BMP280;54895;40.928;14.480;2023-03-12T07:13:41;100406.75;;;17.68
63689;BMP280;54895;40.928;14.480;2023-03-12T07:16:08;100412.66;;;17.95
63689;BMP280;54895;40.928;14.480;2023-03-12T07:18:34;100434.59;;;18.10
63689;BMP280;54895;40.928;14.480;2023-03-12T07:21:02;100438.91;;;17.47
63689;BMP280;54895;40.928;14.480;2023-03-12T07:23:29;100424.56;;;17.44
63689;BMP280;54895;40.928;14.480;2023-03-12T07:25:55;100423.41;;;17.19
63689;BMP280;54895;40.928;14.480;2023-03-12T07:28:22;100415.50;;;17.40
63689;BMP280;54895;40.928;14.480;2023-03-12T07:30:48;100419.75;;;17.43
63689;BMP280;54895;40.928;14.480;2023-03-12T07:36:52;100432.38;;;17.69
63689;BMP280;54895;40.928;14.480;2023-03-12T07:39:20;100422.47;;;17.62
63689;BMP280;54895;40.928;14.480;2023-03-12T07:41:47;100400.22;;;17.14
63689;BMP280;54895;40.928;14.480;2023-03-12T07:44:14;100416.22;;;17.31
63689;BMP280;54895;40.928;14.480;2023-03-12T07:46:41;100419.50;;;17.48
63689;BMP280;54895;40.928;14.480;2023-03-12T07:49:08;100426.28;;;17.68
63689;BMP280;54895;40.928;14.480;2023-03-12T07:51:36;100441.16;;;17.60
63689;BMP280;54895;40.928;14.480;2023-03-12T07:54:02;100460.44;;;17.85
63689;BMP280;54895;40.928;14.480;2023-03-12T07:56:29;100472.31;;;18.01
63689;BMP280;54895;40.928;14.480;2023-03-12T07:58:57;100457.72;;;18.04
63689;BMP280;54895;40.928;14.480;2023-03-12T08:01:24;100483.34;;;18.05
63689;BMP280;54895;40.928;14.480;2023-03-12T08:03:58;100506.53;;;18.29
63689;BMP280;54895;40.928;14.480;2023-03-12T08:06:25;100510.09;;;18.81
63689;BMP280;54895;40.928;14.480;2023-03-12T08:08:52;100536.56;;;18.93
63689;BMP280;54895;40.928;14.480;2023-03-12T08:11:19;100539.63;;;18.99
63689;BMP280;54895;40.928;14.480;2023-03-12T08:13:46;100539.06;;;19.52
63689;BMP280;54895;40.928;14.480;2023-03-12T08:16:13;100551.28;;;19.32
63689;BMP280;54895;40.928;14.480;2023-03-12T08:18:40;100540.06;;;19.05
63689;BMP280;54895;40.928;14.480;2023-03-12T08:21:08;100539.13;;;18.91
63689;BMP280;54895;40.928;14.480;2023-03-12T08:23:35;100537.78;;;19.11
63689;BMP280;54895;40.928;14.480;2023-03-12T08:26:02;100538.09;;;19.69
63689;BMP280;54895;40.928;14.480;2023-03-12T08:28:29;100554.41;;;19.92
63689;BMP280;54895;40.928;14.480;2023-03-12T08:30:58;100556.91;;;19.99
63689;BMP280;54895;40.928;14.480;2023-03-12T08:37:10;100589.38;;;20.66
63689;BMP280;54895;40.928;14.480;2023-03-12T08:39:37;100604.22;;;20.99
63689;BMP280;54895;40.928;14.480;2023-03-12T08:42:03;100602.34;;;20.90
63689;BMP280;54895;40.928;14.480;2023-03-12T08:44:31;100609.66;;;20.99
63689;BMP280;54895;40.928;14.480;2023-03-12T08:46:57;100611.69;;;21.47
63689;BMP280;54895;40.928;14.480;2023-03-12T08:49:24;100622.50;;;21.58
63689;BMP280;54895;40.928;14.480;2023-03-12T08:51:50;100629.50;;;21.86
63689;BMP280;54895;40.928;14.480;2023-03-12T08:54:18;100638.53;;;21.54
63689;BMP280;54895;40.928;14.480;2023-03-12T08:56:44;100637.84;;;21.08
63689;BMP280;54895;40.928;14.480;2023-03-12T08:59:12;100646.09;;;21.10
63689;BMP280;54895;40.928;14.480;2023-03-12T09:01:39;100643.66;;;20.59
63689;BMP280;54895;40.928;14.480;2023-03-12T09:04:05;100641.59;;;20.04
63689;BMP280;54895;40.928;14.480;2023-03-12T09:06:32;100653.09;;;20.04
63689;BMP280;54895;40.928;14.480;2023-03-12T09:09:01;100651.47;;;20.11
63689;BMP280;54895;40.928;14.480;2023-03-12T09:11:31;100660.84;;;20.63
63689;BMP280;54895;40.928;14.480;2023-03-12T09:13:59;100663.16;;;20.57
63689;BMP280;54895;40.928;14.480;2023-03-12T09:16:26;100650.50;;;19.64
63689;BMP280;54895;40.928;14.480;2023-03-12T09:18:53;100648.03;;;19.99
63689;BMP280;54895;40.928;14.480;2023-03-12T09:21:19;100668.53;;;19.92
63689;BMP280;54895;40.928;14.480;2023-03-12T09:23:46;100658.50;;;20.69
63689;BMP280;54895;40.928;14.480;2023-03-12T09:26:13;100651.88;;;20.49
63689;BMP280;54895;40.928;14.480;2023-03-12T09:28:40;100655.56;;;20.65
63689;BMP280;54895;40.928;14.480;2023-03-12T09:31:07;100638.75;;;20.55
63689;BMP280;54895;40.928;14.480;2023-03-12T09:36:50;100655.19;;;20.59
63689;BMP280;54895;40.928;14.480;2023-03-12T09:39:18;100634.53;;;19.99
63689;BMP280;54895;40.928;14.480;2023-03-12T09:41:47;100636.69;;;19.91
63689;BMP280;54895;40.928;14.480;2023-03-12T09:46:59;100645.69;;;20.05
63689;BMP280;54895;40.928;14.480;2023-03-12T09:49:39;100646.16;;;19.80
63689;BMP280;54895;40.928;14.480;2023-03-12T09:52:27;100635.88;;;19.88
63689;BMP280;54895;40.928;14.480;2023-03-12T09:57:34;100660.31;;;19.60
63689;BMP280;54895;40.928;14.480;2023-03-12T10:00:00;100632.34;;;19.34
63689;BMP280;54895;40.928;14.480;2023-03-12T10:23:07;100657.94;;;18.75
63689;BMP280;54895;40.928;14.480;2023-03-12T10:25:39;100685.16;;;18.97
63689;BMP280;54895;40.928;14.480;2023-03-12T10:28:20;100685.53;;;19.13
63689;BMP280;54895;40.928;14.480;2023-03-12T10:30:53;100675.31;;;19.11
63689;BMP280;54895;40.928;14.480;2023-03-12T10:33:24;100681.00;;;19.06
63689;BMP280;54895;40.928;14.480;2023-03-12T10:35:53;100695.63;;;19.03
63689;BMP280;54895;40.928;14.480;2023-03-12T10:38:28;100701.56;;;19.20
63689;BMP280;54895;40.928;14.480;2023-03-12T10:40:55;100706.63;;;19.66
63689;BMP280;54895;40.928;14.480;2023-03-12T10:43:22;100720.16;;;19.56
63689;BMP280;54895;40.928;14.480;2023-03-12T10:48:23;100724.06;;;19.74
63689;BMP280;54895;40.928;14.480;2023-03-12T10:51:07;100712.88;;;20.10
63689;BMP280;54895;40.928;14.480;2023-03-12T10:53:39;100716.38;;;20.22
63689;BMP280;54895;40.928;14.480;2023-03-12T10:56:19;100725.16;;;20.44
63689;BMP280;54895;40.928;14.480;2023-03-12T10:58:48;100702.81;;;20.43
63689;BMP280;54895;40.928;14.480;2023-03-12T11:01:26;100719.41;;;20.70
63689;BMP280;54895;40.928;14.480;2023-03-12T11:04:15;100724.91;;;21.16
63689;BMP280;54895;40.928;14.480;2023-03-12T11:09:30;100724.91;;;21.16
63689;BMP280;54895;40.928;14.480;2023-03-12T11:11:57;100722.19;;;21.16
63689;BMP280;54895;40.928;14.480;2023-03-12T11:14:27;100729.94;;;21.10
63689;BMP280;54895;40.928;14.480;2023-03-12T11:16:54;100714.50;;;20.78
63689;BMP280;54895;40.928;14.480;2023-03-12T11:19:32;100714.22;;;21.41
63689;BMP280;54895;40.928;14.480;2023-03-12T11:22:02;100711.53;;;21.41
63689;BMP280;54895;40.928;14.480;2023-03-12T11:24:29;100696.19;;;21.34
63689;BMP280;54895;40.928;14.480;2023-03-12T11:29:53;100689.31;;;21.90
63689;BMP280;54895;40.928;14.480;2023-03-12T11:43:39;100701.38;;;21.07
63689;BMP280;54895;40.928;14.480;2023-03-12T11:49:10;100700.91;;;21.22
63689;BMP280;54895;40.928;14.480;2023-03-12T11:52:03;100715.16;;;21.34
63689;BMP280;54895;40.928;14.480;2023-03-12T11:57:16;100710.06;;;21.17
63689;BMP280;54895;40.928;14.480;2023-03-12T12:00:02;100718.81;;;21.27
63689;BMP280;54895;40.928;14.480;2023-03-12T12:19:03;100731.72;;;21.17
63689;BMP280;54895;40.928;14.480;2023-03-12T12:21:51;100741.25;;;21.64
63689;BMP280;54895;40.928;14.480;2023-03-12T12:29:52;100724.84;;;22.08
63689;BMP280;54895;40.928;14.480;2023-03-12T12:32:39;100735.44;;;22.04
63689;BMP280;54895;40.928;14.480;2023-03-12T12:35:37;100740.91;;;22.53
63689;BMP280;54895;40.928;14.480;2023-03-12T12:38:29;100737.34;;;22.62
63689;BMP280;54895;40.928;14.480;2023-03-12T12:41:06;100749.59;;;22.88
63689;BMP280;54895;40.928;14.480;2023-03-12T12:43:49;100748.41;;;22.66
63689;BMP280;54895;40.928;14.480;2023-03-12T12:46:20;100738.91;;;22.29
63689;BMP280;54895;40.928;14.480;2023-03-12T12:51:39;100741.75;;;22.20
63689;BMP280;54895;40.928;14.480;2023-03-12T12:54:26;100744.91;;;21.80
63689;BMP280;54895;40.928;14.480;2023-03-12T12:57:12;100751.78;;;21.58
63689;BMP280;54895;40.928;14.480;2023-03-12T12:59:45;100749.34;;;21.98
63689;BMP280;54895;40.928;14.480;2023-03-12T13:02:22;100765.25;;;22.04
63689;BMP280;54895;40.928;14.480;2023-03-12T13:04:55;100765.75;;;21.89
63689;BMP280;54895;40.928;14.480;2023-03-12T13:09:52;100776.09;;;21.92
63689;BMP280;54895;40.928;14.480;2023-03-12T13:12:29;100777.16;;;21.99
63689;BMP280;54895;40.928;14.480;2023-03-12T13:14:57;100783.63;;;21.82
63689;BMP280;54895;40.928;14.480;2023-03-12T13:18:08;100787.31;;;21.29
63689;BMP280;54895;40.928;14.480;2023-03-12T13:20:16;100785.97;;;21.19
63689;BMP280;54895;40.928;14.480;2023-03-12T13:25:47;100804.22;;;21.30
63689;BMP280;54895;40.928;14.480;2023-03-12T13:30:56;100797.44;;;21.75
63689;BMP280;54895;40.928;14.480;2023-03-12T13:45:59;100827.13;;;21.61
63689;BMP280;54895;40.928;14.480;2023-03-12T13:48:30;100836.63;;;21.39
63689;BMP280;54895;40.928;14.480;2023-03-12T13:51:03;100824.03;;;21.55
63689;BMP280;54895;40.928;14.480;2023-03-12T13:53:37;100842.91;;;21.65
63689;BMP280;54895;40.928;14.480;2023-03-12T13:56:08;100845.47;;;22.09
63689;BMP280;54895;40.928;14.480;2023-03-12T13:58:55;100858.66;;;21.57
63689;BMP280;54895;40.928;14.480;2023-03-12T14:01:27;100851.03;;;22.11
63689;BMP280;54895;40.928;14.480;2023-03-12T14:04:00;100853.50;;;22.07
63689;BMP280;54895;40.928;14.480;2023-03-12T14:06:29;100857.50;;;22.06
63689;BMP280;54895;40.928;14.480;2023-03-12T14:09:25;100857.63;;;21.85
63689;BMP280;54895;40.928;14.480;2023-03-12T14:12:08;100866.56;;;21.76
63689;BMP280;54895;40.928;14.480;2023-03-12T14:17:28;100863.34;;;21.45
63689;BMP280;54895;40.928;14.480;2023-03-12T14:22:31;100877.06;;;21.70
63689;BMP280;54895;40.928;14.480;2023-03-12T14:25:21;100865.78;;;21.85
63689;BMP280;54895;40.928;14.480;2023-03-12T14:27:48;100877.91;;;21.40
63689;BMP280;54895;40.928;14.480;2023-03-12T14:30:21;100871.19;;;21.85
63689;BMP280;54895;40.928;14.480;2023-03-12T14:32:51;100867.16;;;21.86
63689;BMP280;54895;40.928;14.480;2023-03-12T14:38:12;100895.06;;;21.77
63689;BMP280;54895;40.928;14.480;2023-03-12T14:41:06;100890.91;;;21.53
63689;BMP280;54895;40.928;14.480;2023-03-12T14:43:41;100892.56;;;21.14
63689;BMP280;54895;40.928;14.480;2023-03-12T14:46:17;100888.19;;;21.09
63689;BMP280;54895;40.928;14.480;2023-03-12T14:48:50;100877.78;;;20.94
63689;BMP280;54895;40.928;14.480;2023-03-12T14:51:23;100898.09;;;21.16
63689;BMP280;54895;40.928;14.480;2023-03-12T14:53:51;100905.47;;;20.83
63689;BMP280;54895;40.928;14.480;2023-03-12T14:56:27;100905.59;;;20.64
63689;BMP280;54895;40.928;14.480;2023-03-12T14:58:59;100913.84;;;20.66
63689;BMP280;54895;40.928;14.480;2023-03-12T15:01:30;100913.31;;;20.58
63689;BMP280;54895;40.928;14.480;2023-03-12T15:04:00;100893.03;;;20.17
63689;BMP280;54895;40.928;14.480;2023-03-12T15:06:28;100921.91;;;20.75
63689;BMP280;54895;40.928;14.480;2023-03-12T15:08:56;100912.47;;;20.56
63689;BMP280;54895;40.928;14.480;2023-03-12T15:11:25;100926.06;;;20.67
63689;BMP280;54895;40.928;14.480;2023-03-12T15:14:06;100924.22;;;20.60
63689;BMP280;54895;40.928;14.480;2023-03-12T15:16:34;100921.81;;;20.34
63689;BMP280;54895;40.928;14.480;2023-03-12T15:19:01;100917.53;;;20.00
63689;BMP280;54895;40.928;14.480;2023-03-12T15:21:32;100912.63;;;19.68
63689;BMP280;54895;40.928;14.480;2023-03-12T15:24:00;100925.00;;;19.71
63689;BMP280;54895;40.928;14.480;2023-03-12T15:26:30;100923.88;;;19.36
63689;BMP280;54895;40.928;14.480;2023-03-12T15:29:14;100934.66;;;19.36
63689;BMP280;54895;40.928;14.480;2023-03-12T15:31:47;100934.53;;;19.44
63689;BMP280;54895;40.928;14.480;2023-03-12T15:37:50;100936.81;;;19.38
63689;BMP280;54895;40.928;14.480;2023-03-12T15:40:24;100932.38;;;19.23
63689;BMP280;54895;40.928;14.480;2023-03-12T15:42:51;100941.63;;;19.11
63689;BMP280;54895;40.928;14.480;2023-03-12T15:45:24;100949.25;;;19.05
63689;BMP280;54895;40.928;14.480;2023-03-12T15:47:54;100945.44;;;18.98
63689;BMP280;54895;40.928;14.480;2023-03-12T15:50:22;100931.88;;;18.70
63689;BMP280;54895;40.928;14.480;2023-03-12T15:55:32;100974.91;;;18.87
63689;BMP280;54895;40.928;14.480;2023-03-12T15:58:00;100979.34;;;18.92
63689;BMP280;54895;40.928;14.480;2023-03-12T16:00:40;100982.84;;;18.85
63689;BMP280;54895;40.928;14.480;2023-03-12T16:03:18;100993.91;;;18.79
63689;BMP280;54895;40.928;14.480;2023-03-12T16:05:45;100997.13;;;18.69
63689;BMP280;54895;40.928;14.480;2023-03-12T16:08:15;101001.22;;;18.70
63689;BMP280;54895;40.928;14.480;2023-03-12T16:10:43;100994.84;;;18.39
63689;BMP280;54895;40.928;14.480;2023-03-12T16:13:16;100995.44;;;18.47
63689;BMP280;54895;40.928;14.480;2023-03-12T16:15:42;101002.44;;;18.33
63689;BMP280;54895;40.928;14.480;2023-03-12T16:18:14;101010.25;;;18.29
63689;BMP280;54895;40.928;14.480;2023-03-12T16:20:41;101009.38;;;18.26
63689;BMP280;54895;40.928;14.480;2023-03-12T16:23:08;101018.56;;;18.23
63689;BMP280;54895;40.928;14.480;2023-03-12T16:25:34;101016.06;;;18.08
63689;BMP280;54895;40.928;14.480;2023-03-12T16:28:03;101026.13;;;18.08
63689;BMP280;54895;40.928;14.480;2023-03-12T16:30:33;101025.47;;;18.00
63689;BMP280;54895;40.928;14.480;2023-03-12T16:33:01;101034.28;;;18.17